createdAt,value
2019-05-19T00:05:11.557Z,100325.54
2019-05-19T00:10:34.981Z,100323.95
2019-05-19T00:15:56.763Z,100321.45
2019-05-19T00:21:20.037Z,100313.25
2019-05-19T00:26:42.768Z,100305.26
2019-05-19T00:31:58.288Z,100317.66
2019-05-19T00:37:21.573Z,100325.23
2019-05-19T00:42:37.146Z,100322.13
2019-05-19T00:48:00.701Z,100320.39
2019-05-19T00:53:22.620Z,100323.31
2019-05-19T00:58:47.077Z,100321.92
2019-05-19T01:04:09.384Z,100322.37
2019-05-19T01:09:33.225Z,100332.73
2019-05-19T01:14:54.932Z,100317.61
2019-05-19T01:20:18.609Z,100310.72
2019-05-19T01:25:40.359Z,100316.02
2019-05-19T01:31:04.372Z,100316.22
2019-05-19T01:36:26.128Z,100326.16
2019-05-19T01:41:49.462Z,100318.17
2019-05-19T01:47:04.958Z,100316.43
2019-05-19T01:52:28.293Z,100313.73
2019-05-19T01:57:43.818Z,100303.05
2019-05-19T02:03:07.055Z,100313.73
2019-05-19T02:08:22.732Z,100315.89
2019-05-19T02:13:46.082Z,100329.38
2019-05-19T02:19:01.606Z,100325.39
2019-05-19T02:24:24.796Z,100337.17
2019-05-19T02:29:46.510Z,100324.84
2019-05-19T02:35:11.699Z,100324.84
2019-05-19T02:40:35.047Z,100345.57
2019-05-19T02:46:01.694Z,100340.92
2019-05-19T02:51:25.933Z,100347.07
2019-05-19T02:56:50.352Z,100348.91
2019-05-19T03:02:15.021Z,100340.83
2019-05-19T03:07:36.737Z,100341.78
2019-05-19T03:13:00.496Z,100344.61
2019-05-19T03:18:22.394Z,100343.52
2019-05-19T03:23:45.674Z,100341.47
2019-05-19T03:29:08.186Z,100328.63
2019-05-19T03:34:31.455Z,100323.98
2019-05-19T03:39:46.977Z,100325.72
2019-05-19T03:45:10.662Z,100330.37
2019-05-19T03:50:32.451Z,100322.17
2019-05-19T03:55:55.710Z,100326.91
2019-05-19T04:01:17.429Z,100341.91
2019-05-19T04:06:40.702Z,100334.42
2019-05-19T04:12:02.467Z,100346.08
2019-05-19T04:17:25.726Z,100337.72
2019-05-19T04:22:47.494Z,100337.62
2019-05-19T04:28:10.752Z,100337.09
2019-05-19T04:33:26.261Z,100343.02
2019-05-19T04:38:49.481Z,100349.30
2019-05-19T04:44:05.020Z,100338.44
2019-05-19T04:49:28.215Z,100338.98
2019-05-19T04:54:43.739Z,100336.60
2019-05-19T05:00:07.421Z,100337.62
2019-05-19T05:05:30.421Z,100326.59
2019-05-19T05:10:53.736Z,100331.63
2019-05-19T05:16:15.504Z,100333.52
2019-05-19T05:21:38.778Z,100330.63
2019-05-19T05:26:54.278Z,100321.94
2019-05-19T05:32:17.589Z,100315.55
2019-05-19T05:37:40.840Z,100311.73
2019-05-19T05:43:04.756Z,100323.17
2019-05-19T05:48:28.034Z,100310.40
2019-05-19T05:53:43.525Z,100316.04
2019-05-19T05:59:07.063Z,100314.20
2019-05-19T06:04:28.766Z,100270.36
2019-05-19T06:09:50.523Z,100294.48
2019-05-19T06:15:12.611Z,100319.13
2019-05-19T06:20:35.873Z,100317.40
2019-05-19T06:25:57.606Z,100317.19
2019-05-19T06:31:20.903Z,100318.50
2019-05-19T06:36:42.734Z,100319.52
2019-05-19T06:42:06.015Z,100321.97
2019-05-19T06:47:27.723Z,100322.10
2019-05-19T06:52:51.002Z,100317.39
2019-05-19T06:58:12.725Z,100313.75
2019-05-19T07:03:36.038Z,100312.08
2019-05-19T07:08:57.731Z,100310.16
2019-05-19T07:14:21.080Z,100315.16
2019-05-19T07:19:42.779Z,100307.83
2019-05-19T07:25:06.056Z,100310.09
2019-05-19T07:30:27.929Z,100293.47
2019-05-19T07:35:51.298Z,100298.18
2019-05-19T07:41:13.032Z,100300.17
2019-05-19T07:46:36.313Z,100301.95
2019-05-19T07:51:58.651Z,100299.81
2019-05-19T07:57:20.369Z,100297.03
2019-05-19T08:02:46.572Z,100299.78
2019-05-19T08:08:15.411Z,100303.08
2019-05-19T08:13:40.403Z,100300.55
2019-05-19T08:19:02.354Z,100297.70
2019-05-19T08:24:28.652Z,100298.64
2019-05-19T08:29:55.180Z,100295.97
2019-05-19T08:35:20.160Z,100302.04
2019-05-19T08:40:44.505Z,100292.45
2019-05-19T08:46:11.237Z,100292.96
2019-05-19T08:51:32.986Z,100292.16
2019-05-19T08:56:56.509Z,100291.86
2019-05-19T09:02:20.064Z,100301.10
2019-05-19T09:07:43.335Z,100295.64
2019-05-19T09:13:06.647Z,100303.81
2019-05-19T09:18:35.310Z,100303.81
2019-05-19T09:23:57.110Z,100306.75
2019-05-19T09:29:20.437Z,100314.33
2019-05-19T09:34:42.132Z,100316.67
2019-05-19T09:40:05.383Z,100305.54
2019-05-19T09:45:28.558Z,100306.25
2019-05-19T09:50:51.866Z,100309.07
2019-05-19T09:56:13.705Z,100294.87
2019-05-19T10:01:38.057Z,100299.16
2019-05-19T10:07:01.010Z,100292.95
2019-05-19T10:12:26.967Z,100302.72
2019-05-19T10:17:50.234Z,100304.80
2019-05-19T10:23:11.969Z,100298.97
2019-05-19T10:28:35.320Z,100298.73
2019-05-19T10:33:57.126Z,100294.00
2019-05-19T10:39:20.498Z,100287.84
2019-05-19T10:44:42.185Z,100277.59
2019-05-19T10:50:05.485Z,100274.69
2019-05-19T10:55:35.980Z,100283.91
2019-05-19T11:00:52.425Z,100290.34
2019-05-19T11:06:14.150Z,100285.73
2019-05-19T11:11:37.419Z,100277.09
2019-05-19T11:16:59.162Z,100279.95
2019-05-19T11:22:22.444Z,100280.87
2019-05-19T11:27:44.128Z,100283.91
2019-05-19T11:33:07.381Z,100272.45
2019-05-19T11:38:29.076Z,100269.44
2019-05-19T11:43:52.309Z,100262.75
2019-05-19T11:49:14.037Z,100242.73
2019-05-19T11:54:37.235Z,100237.55
2019-05-19T11:59:58.936Z,100231.19
2019-05-19T12:05:23.724Z,100228.98
2019-05-19T12:10:45.510Z,100224.97
2019-05-19T12:16:07.210Z,100220.63
2019-05-19T12:21:30.448Z,100217.42
2019-05-19T12:26:52.142Z,100210.20
2019-05-19T12:32:15.458Z,100197.13
2019-05-19T12:37:37.176Z,100196.31
2019-05-19T12:43:00.459Z,100192.06
2019-05-19T12:48:22.201Z,100194.34
2019-05-19T12:53:48.493Z,100192.02
2019-05-19T12:59:10.232Z,100183.25
2019-05-19T13:04:33.511Z,100185.48
2019-05-19T13:09:55.216Z,100180.25
2019-05-19T13:15:19.054Z,100181.98
2019-05-19T13:20:40.772Z,100179.30
2019-05-19T13:26:04.019Z,100171.17
2019-05-19T13:31:25.724Z,100177.44
2019-05-19T13:36:48.973Z,100171.05
2019-05-19T13:42:10.674Z,100172.55
2019-05-19T13:47:34.155Z,100156.17
2019-05-19T13:52:55.878Z,100155.27
2019-05-19T13:58:19.126Z,100140.42
2019-05-19T14:03:40.831Z,100132.92
2019-05-19T14:09:05.355Z,100133.78
2019-05-19T14:14:27.048Z,100130.44
2019-05-19T14:19:49.815Z,100117.41
2019-05-19T14:25:12.397Z,100116.09
2019-05-19T14:30:35.820Z,100118.35
2019-05-19T14:35:59.078Z,100118.52
2019-05-19T14:41:05.822Z,100108.98
2019-05-19T14:46:14.179Z,100112.23
2019-05-19T14:51:32.989Z,100100.40
2019-05-19T14:56:56.291Z,100089.95
2019-05-19T15:02:19.952Z,100090.72
2019-05-19T15:07:42.963Z,100095.78
2019-05-19T15:13:07.191Z,100089.55
2019-05-19T15:18:30.438Z,100079.17
2019-05-19T15:23:52.169Z,100088.20
2019-05-19T15:29:15.409Z,100084.59
2019-05-19T15:34:37.122Z,100044.56
2019-05-19T15:40:00.375Z,100064.50
2019-05-19T15:45:22.832Z,100058.28
2019-05-19T15:50:46.090Z,100064.43
2019-05-19T15:56:07.870Z,100066.42
2019-05-19T16:01:31.160Z,100073.61
2019-05-19T16:06:52.863Z,100073.48
2019-05-19T16:12:16.065Z,100075.17
2019-05-19T16:17:37.800Z,100078.18
2019-05-19T16:23:01.093Z,100079.50
2019-05-19T16:28:30.294Z,100087.91
2019-05-19T16:33:47.921Z,100087.73
2019-05-19T17:06:29.087Z,100071.73
2019-05-19T17:11:54.290Z,100051.02
2019-05-19T17:14:31.620Z,100052.20
2019-05-19T17:21:25.901Z,100049.81
2019-05-19T17:23:01.179Z,100062.01
2019-05-19T17:23:55.342Z,100058.86
2019-05-19T17:24:49.935Z,100052.75
2019-05-19T17:25:43.046Z,100059.48
2019-05-19T17:26:37.758Z,100056.08
2019-05-19T17:27:31.884Z,100056.98
2019-05-19T17:28:26.509Z,100056.33
2019-05-19T17:29:20.327Z,100059.30
2019-05-19T17:30:15.271Z,100066.67
2019-05-19T17:31:09.077Z,100057.64
2019-05-19T17:32:06.331Z,100057.65
2019-05-19T17:32:59.718Z,100059.38
2019-05-19T17:33:54.293Z,100057.29
2019-05-19T17:34:48.415Z,100065.16
2019-05-19T17:35:43.150Z,100054.25
2019-05-19T17:36:37.171Z,100056.65
2019-05-19T17:37:31.827Z,100059.21
2019-05-19T17:38:25.612Z,100052.56
2019-05-19T17:39:20.351Z,100053.06
2019-05-19T17:40:14.354Z,100054.58
2019-05-19T17:41:09.092Z,100055.80
2019-05-19T17:42:49.396Z,100052.19
2019-05-19T17:44:14.237Z,100041.93
2019-05-19T17:45:37.959Z,100061.09
2019-05-19T17:47:01.665Z,100057.67
2019-05-19T17:48:26.998Z,100058.34
2019-05-19T17:49:51.873Z,100057.31
2019-05-19T17:51:15.777Z,100055.28
2019-05-19T17:52:40.831Z,100060.36
2019-05-19T17:54:05.008Z,100058.30
2019-05-19T17:55:29.475Z,100059.83
2019-05-19T18:06:49.880Z,100088.38
2019-05-19T18:08:14.721Z,100085.36
2019-05-19T18:10:18.271Z,100081.52
2019-05-19T18:11:43.022Z,100081.73
2019-05-19T18:13:07.275Z,100087.61
2019-05-19T18:14:31.962Z,100089.23
2019-05-19T18:15:55.883Z,100087.66
2019-05-19T18:17:20.623Z,100095.33
2019-05-19T18:18:44.589Z,100093.10
2019-05-19T18:20:22.704Z,100088.41
2019-05-19T18:21:34.734Z,100100.19
2019-05-19T18:22:58.954Z,100097.60
2019-05-19T18:24:23.493Z,100106.19
2019-05-19T18:25:48.138Z,100089.56
2019-05-19T18:27:12.052Z,100092.66
2019-05-19T18:28:36.791Z,100095.23
2019-05-19T18:30:01.037Z,100092.35
2019-05-19T18:31:26.052Z,100094.05
2019-05-19T18:32:50.273Z,100095.73
2019-05-19T18:34:15.002Z,100091.39
2019-05-19T18:35:38.985Z,100094.05
2019-05-19T18:37:03.681Z,100094.31
2019-05-19T18:38:27.894Z,100091.70
2019-05-19T18:39:52.314Z,100100.12
2019-05-19T18:41:16.571Z,100089.63
2019-05-19T18:42:41.335Z,100090.03
2019-05-19T18:44:05.517Z,100098.60
2019-05-19T18:45:30.249Z,100099.19
2019-05-19T18:46:54.192Z,100095.13
2019-05-19T18:48:18.896Z,100097.41
2019-05-19T18:49:43.124Z,100096.22
2019-05-19T18:51:06.635Z,100111.23
2019-05-19T18:52:30.940Z,100114.69
2019-05-19T18:53:55.614Z,100109.09
2019-05-19T18:55:20.396Z,100106.19
2019-05-19T18:56:44.407Z,100099.05
2019-05-19T18:58:08.399Z,100105.88
2019-05-19T18:59:46.486Z,100110.19
2019-05-19T19:01:00.621Z,100107.31
2019-05-19T19:02:25.564Z,100106.83
2019-05-19T19:03:49.482Z,100105.19
2019-05-19T19:05:16.265Z,100106.61
2019-05-19T19:06:41.209Z,100110.03
2019-05-19T19:08:05.640Z,100109.88
2019-05-19T19:09:29.549Z,100106.27
2019-05-19T19:10:54.299Z,100114.45
2019-05-19T19:12:18.241Z,100114.78
2019-05-19T19:13:42.637Z,100110.88
2019-05-19T19:23:17.087Z,100087.45
2019-05-19T19:28:43.614Z,100085.57
2019-05-19T19:34:07.701Z,100092.55
2019-05-19T19:39:31.621Z,100091.55
2019-05-19T19:44:55.874Z,100087.06
2019-05-19T19:50:19.905Z,100094.12
2019-05-19T19:55:43.731Z,100094.14
2019-05-19T20:01:07.220Z,100097.50
2019-05-19T20:06:31.310Z,100096.08
2019-05-19T20:11:56.643Z,100091.81
2019-05-19T20:17:22.281Z,100092.42
2019-05-19T20:22:46.927Z,100088.16
2019-05-19T20:28:12.320Z,100091.30
2019-05-19T20:33:36.528Z,100080.98
2019-05-19T20:39:01.756Z,100064.71
2019-05-19T20:44:25.851Z,100093.75
2019-05-19T20:49:51.493Z,100095.60
2019-05-19T20:55:15.590Z,100107.58
2019-05-19T21:00:49.898Z,100112.44
2019-05-19T21:06:06.898Z,100109.58
2019-05-19T21:11:32.504Z,100110.56
2019-05-19T21:16:56.606Z,100112.41
2019-05-19T21:22:21.638Z,100111.53
2019-05-19T21:27:45.423Z,100122.97
2019-05-19T21:33:11.071Z,100111.22
2019-05-19T21:38:35.161Z,100106.64
2019-05-19T21:44:00.797Z,100110.64
2019-05-19T21:49:24.896Z,100109.21
2019-05-19T21:54:50.226Z,100107.30
2019-05-19T22:00:15.582Z,100103.70
2019-05-19T22:05:53.005Z,100105.54
2019-05-19T22:11:08.671Z,100100.42
2019-05-19T22:16:32.765Z,100102.55
2019-05-19T22:21:58.103Z,100105.95
2019-05-19T22:27:21.612Z,100104.06
2019-05-19T22:32:47.220Z,100104.00
2019-05-19T22:38:11.328Z,100100.36
2019-05-19T22:43:36.883Z,100082.49
2019-05-19T22:49:01.066Z,100103.15
2019-05-19T22:54:26.395Z,100103.15
2019-05-19T22:59:50.187Z,100105.80
2019-05-19T23:05:15.832Z,100098.48
2019-05-19T23:10:39.308Z,100101.48
2019-05-19T23:16:04.340Z,100090.55
2019-05-19T23:21:28.437Z,100088.81
2019-05-19T23:26:53.872Z,100108.05
2019-05-19T23:32:18.175Z,100099.93
2019-05-19T23:37:43.507Z,100110.27
2019-05-19T23:43:07.905Z,100095.15
2019-05-19T23:48:33.543Z,100095.15
2019-05-19T23:53:57.653Z,100093.30
2019-05-19T23:59:22.975Z,100086.91
